Flight Track Log - Related Links

Times and Time Zones

All times are in EDT time to prevent confusion due to time zone crossing. See the IBE3329 flight status page for this flight to view local times or setup timezone preferences in your user account.

Time Position Orientation Groundspeed Altitude Reporting Facility
EDT Latitude Longitude Course Direction KTS MPH feet Rate Location/Type
Thu 07:30:00 PM 21.4322 -14.4986 23° Northeast  Level Estimated
Thu 07:31:00 PM 21.5452 -14.4458 24° Northeast  Level Estimated
Thu 07:32:00 PM 21.6582 -14.3928 24° Northeast  Level Estimated
Thu 07:33:00 PM 21.7712 -14.3398 24° Northeast  Level Estimated
Thu 07:34:00 PM 21.8841 -14.2867 24° Northeast  Level Estimated
Thu 07:35:00 PM 21.9971 -14.2336 24° Northeast  Level Estimated
Thu 07:36:00 PM 22.1100 -14.1803 24° Northeast  Level Estimated
Thu 07:37:00 PM 22.2229 -14.1270 24° Northeast  Level Estimated
Thu 07:38:00 PM 22.3358 -14.0735 24° Northeast  Level Estimated
Thu 07:39:00 PM 22.4487 -14.0200 24° Northeast  Level Estimated
Thu 07:40:00 PM 22.5615 -13.9664 24° Northeast  Level Estimated
Thu 07:41:00 PM 22.6743 -13.9127 24° Northeast  Level Estimated
Thu 07:42:00 PM 22.7871 -13.8590 24° Northeast  Level Estimated
Thu 07:43:00 PM 22.8999 -13.8051 24° Northeast  Level Estimated
Thu 07:44:00 PM 23.0127 -13.7511 24° Northeast  Level Estimated
Thu 07:45:00 PM 23.1255 -13.6971 24° Northeast  Level Estimated
Thu 07:46:00 PM 23.2382 -13.6429 24° Northeast  Level Estimated
Thu 07:47:00 PM 23.3509 -13.5887 24° Northeast  Level Estimated
Thu 07:48:00 PM 23.4636 -13.5344 24° Northeast  Level Estimated
Thu 07:49:00 PM 23.5763 -13.4800 24° Northeast  Level Estimated
Thu 07:50:00 PM 23.6890 -13.4255 24° Northeast  Level Estimated
Thu 07:51:00 PM 23.8016 -13.3709 24° Northeast  Level Estimated
Thu 07:52:00 PM 23.9142 -13.3162 24° Northeast  Level Estimated
Thu 07:53:00 PM 24.0268 -13.2614 24° Northeast  Level Estimated
Thu 07:54:00 PM 24.1394 -13.2065 24° Northeast  Level Estimated
Thu 07:55:00 PM 24.2520 -13.1515 24° Northeast  Level Estimated
Thu 07:56:00 PM 24.3646 -13.0964 24° Northeast  Level Estimated
Thu 07:57:00 PM 24.4771 -13.0413 24° Northeast  Level Estimated
Thu 07:58:00 PM 24.5896 -12.9860 24° Northeast  Level Estimated
Thu 07:59:00 PM 24.7021 -12.9306 24° Northeast  Level Estimated
Thu 08:00:00 PM 24.8146 -12.8751 24° Northeast  Level Estimated
Thu 08:01:00 PM 24.9270 -12.8195 24° Northeast  Level Estimated
Thu 08:02:00 PM 25.0394 -12.7639 24° Northeast  Level Estimated
Thu 08:03:00 PM 25.1518 -12.7081 24° Northeast  Level Estimated
Thu 08:04:00 PM 25.2642 -12.6522 24° Northeast  Level Estimated
Thu 08:05:00 PM 25.3766 -12.5962 24° Northeast  Level Estimated
Thu 08:06:00 PM 25.4889 -12.5401 24° Northeast  Level Estimated
Thu 08:07:00 PM 25.6012 -12.4839 24° Northeast  Level Estimated
Thu 08:08:00 PM 25.7135 -12.4276 24° Northeast  Level Estimated
Thu 08:09:00 PM 25.8258 -12.3712 24° Northeast  Level Estimated
Thu 08:10:00 PM 25.9381 -12.3147 24° Northeast  Level Estimated
Thu 08:11:00 PM 26.0503 -12.2580 24° Northeast  Level Estimated
Thu 08:12:00 PM 26.1625 -12.2013 24° Northeast  Level Estimated
Thu 08:13:00 PM 26.2747 -12.1445 24° Northeast  Level Estimated
Thu 08:14:00 PM 26.3869 -12.0875 24° Northeast  Level Estimated
Thu 08:15:00 PM 26.4990 -12.0305 24° Northeast  Level Estimated
Thu 08:16:00 PM 26.6111 -11.9733 25° Northeast  Level Estimated
Thu 08:17:00 PM 26.7232 -11.9160 25° Northeast  Level Estimated
Thu 08:18:00 PM 26.8353 -11.8586 25° Northeast  Level Estimated
Thu 08:19:00 PM 26.9473 -11.8011 25° Northeast  Level Estimated
Thu 08:20:00 PM 27.0594 -11.7435 25° Northeast  Level Estimated
Thu 08:21:00 PM 27.1714 -11.6857 25° Northeast  Level Estimated
Thu 08:22:00 PM 27.2834 -11.6278 25° Northeast  Level Estimated
Thu 08:23:00 PM 27.3953 -11.5699 25° Northeast  Level Estimated
Thu 08:24:00 PM 27.5072 -11.5118 25° Northeast  Level Estimated
Thu 08:25:00 PM 27.6192 -11.4536 25° Northeast  Level Estimated
Thu 08:26:00 PM 27.7310 -11.3952 25° Northeast  Level Estimated
Thu 08:27:00 PM 27.8429 -11.3368 25° Northeast  Level Estimated
Thu 08:28:00 PM 27.9547 -11.2782 25° Northeast  Level Estimated
Thu 08:29:00 PM 28.0665 -11.2195 25° Northeast  Level Estimated
Thu 08:30:00 PM 28.1783 -11.1607 25° Northeast  Level Estimated
Thu 08:31:00 PM 28.2901 -11.1018 25° Northeast  Level Estimated
Thu 08:32:00 PM 28.4018 -11.0427 25° Northeast  Level Estimated
Thu 08:33:00 PM 28.5135 -10.9835 25° Northeast  Level Estimated
Thu 08:34:00 PM 28.6252 -10.9242 25° Northeast  Level Estimated
Thu 08:35:00 PM 28.7369 -10.8648 25° Northeast  Level Estimated
Thu 08:36:00 PM 28.8485 -10.8052 25° Northeast  Level Estimated
Thu 08:37:00 PM 28.9601 -10.7455 25° Northeast  Level Estimated
Thu 08:38:00 PM 29.0717 -10.6857 25° Northeast  Level Estimated
Thu 08:39:00 PM 29.1833 -10.6257 25° Northeast  Level Estimated
Thu 08:40:00 PM 29.2948 -10.5657 25° Northeast  Level Estimated
Thu 08:41:00 PM 29.4063 -10.5055 25° Northeast  Level Estimated
Thu 08:42:00 PM 29.5178 -10.4451 25° Northeast  Level Estimated
Thu 08:43:00 PM 29.6292 -10.3846 25° Northeast  Level Estimated
Thu 08:44:00 PM 29.7406 -10.3240 25° Northeast  Level Estimated
Thu 08:45:00 PM 29.8520 -10.2633 25° Northeast  Level Estimated
Thu 08:46:00 PM 29.9634 -10.2024 25° Northeast  Level Estimated
Thu 08:47:00 PM 30.0747 -10.1414 25° Northeast  Level Estimated
Thu 08:48:00 PM 30.1860 -10.0802 25° Northeast  Level Estimated
Thu 08:49:00 PM 30.2973 -10.0189 25° Northeast  Level Estimated
Thu 08:50:00 PM 30.4085 -9.9575 25° Northeast  Level Estimated
Thu 08:51:00 PM 30.5198 -9.8959 25° Northeast  Level Estimated
Thu 08:52:00 PM 30.6310 -9.8342 26° Northeast  Level Estimated
Thu 08:53:00 PM 30.7421 -9.7723 26° Northeast  Level Estimated
Thu 08:54:00 PM 30.8532 -9.7103 26° Northeast  Level Estimated
Thu 08:55:00 PM 30.9643 -9.6482 26° Northeast  Level Estimated
Thu 08:56:00 PM 31.0754 -9.5859 26° Northeast  Level Estimated
Thu 08:57:00 PM 31.1864 -9.5234 26° Northeast  Level Estimated
Thu 08:58:00 PM 31.2975 -9.4608 26° Northeast  Level Estimated
Thu 08:59:00 PM 31.4084 -9.3981 26° Northeast  Level Estimated
Thu 09:00:00 PM 31.5194 -9.3352 26° Northeast  Level Estimated
Thu 09:01:00 PM 31.6303 -9.2722 26° Northeast  Level Estimated
Thu 09:02:00 PM 31.7412 -9.2090 26° Northeast  Level Estimated
Thu 09:03:00 PM 31.8521 -9.1457 26° Northeast  Level Estimated
Thu 09:04:00 PM 31.9629 -9.0822 26° Northeast  Level Estimated
Thu 09:05:00 PM 32.0737 -9.0186 26° Northeast  Level Estimated
Thu 09:06:00 PM 32.1844 -8.9548 26° Northeast  Level Estimated
Thu 09:07:00 PM 32.2952 -8.8908 26° Northeast  Level Estimated
Thu 09:08:00 PM 32.4059 -8.8267 26° Northeast  Level Estimated
Thu 09:09:00 PM 32.5165 -8.7625 26° Northeast  Level Estimated
Thu 09:10:00 PM 32.6272 -8.6980 26° Northeast  Level Estimated
Thu 09:11:00 PM 32.7378 -8.6335 26° Northeast  Level Estimated
Thu 09:12:00 PM 32.8483 -8.5687 26° Northeast  Level Estimated
Thu 09:13:00 PM 32.9589 -8.5038 26° Northeast  Level Estimated
Thu 09:14:00 PM 33.0694 -8.4388 26° Northeast  Level Estimated
Thu 09:15:00 PM 33.1798 -8.3735 26° Northeast  Level Estimated
Thu 09:16:00 PM 33.2903 -8.3082 26° Northeast  Level Estimated
Thu 09:17:00 PM 33.4007 -8.2426 26° Northeast  Level Estimated
Thu 09:18:00 PM 33.5110 -8.1769 26° Northeast  Level Estimated
Thu 09:19:00 PM 33.6214 -8.1110 26° Northeast  Level Estimated
Thu 09:20:00 PM 33.7317 -8.0449 26° Northeast  Level Estimated
Thu 09:21:00 PM 33.8419 -7.9787 27° Northeast  Level Estimated
Thu 09:22:00 PM 33.9521 -7.9123 27° Northeast  Level Estimated
Thu 09:23:00 PM 34.0623 -7.8457 27° Northeast  Level Estimated
Thu 09:24:00 PM 34.1725 -7.7790 27° Northeast  Level Estimated
Thu 09:25:00 PM 34.2826 -7.7120 27° Northeast  Level Estimated
Thu 09:26:00 PM 34.3927 -7.6449 27° Northeast  Level Estimated
Thu 09:27:00 PM 34.5027 -7.5777 27° Northeast  Level Estimated
Thu 09:28:00 PM 34.6127 -7.5102 27° Northeast  Level Estimated
Thu 09:28:58 PM 36.0520 -6.1310 27° Northeast 519 597 32,000  Level FlightAware ADS-B
Thu 09:29:00 PM 34.7227 -7.4426 27° Northeast  Level Estimated
Thu 09:29:38 PM 36.1250 -6.0710 34° Northeast 520 598 32,000  Level FlightAware ADS-B
Thu 09:30:23 PM 36.2240 -6.0090 27° Northeast 511 588 32,000  Level FlightAware ADS-B
Thu 09:31:03 PM 36.3120 -5.9710 19° North 501 577 32,000  Level FlightAware ADS-B
Thu 09:31:43 PM 36.4030 -5.9430 14° North 497 572 32,000  Level FlightAware ADS-B
Thu 09:32:28 PM 36.4940 -5.9170 13° North 496 571 32,000  Level FlightAware ADS-B
Thu 09:33:03 PM 36.5710 -5.8940 13° North 494 568 32,000  Level FlightAware ADS-B
Thu 09:33:53 PM 36.6890 -5.8590 13° North 495 570 32,000  Level FlightAware ADS-B
Thu 09:34:33 PM 36.7790 -5.8320 14° North 496 571 32,000  Level FlightAware ADS-B
Thu 09:35:18 PM 36.8790 -5.8020 13° North 496 571 32,000  Level FlightAware ADS-B
Thu 09:35:58 PM 36.9700 -5.7750 13° North 495 570 32,000  Level FlightAware ADS-B
Thu 09:36:38 PM 37.0580 -5.7490 13° North 495 570 32,000  Level FlightAware ADS-B
Thu 09:37:23 PM 37.1600 -5.7180 14° North 495 570 32,000  Level FlightAware ADS-B
Thu 09:38:03 PM 37.2490 -5.6910 14° North 496 571 32,000  Level FlightAware ADS-B
Thu 09:38:48 PM 37.3500 -5.6610 13° North 497 572 32,000  Level FlightAware ADS-B
Thu 09:39:28 PM 37.4330 -5.6360 13° North 498 573 32,000  Level FlightAware ADS-B
Thu 09:40:08 PM 37.5330 -5.6050 14° North 497 572 32,000  Level FlightAware ADS-B
Thu 09:40:53 PM 37.6370 -5.5740 13° North 498 573 32,000  Level FlightAware ADS-B
Thu 09:42:18 PM 37.8250 -5.5160 14° North 494 568 32,000  Level FlightAware ADS-B
Thu 09:43:08 PM 37.9350 -5.4830 13° North 494 568 32,000  Level FlightAware ADS-B
Thu 09:43:43 PM 38.0070 -5.4600 14° North 483 556 32,000  Level FlightAware ADS-B
Thu 09:44:28 PM 38.1130 -5.4280 13° North 481 554 32,000  Level FlightAware ADS-B
Thu 09:45:18 PM 38.2200 -5.3950 14° North 478 550 32,000  Level FlightAware ADS-B
Thu 09:46:13 PM 38.3380 -5.3580 14° North 483 556 32,000  Level FlightAware ADS-B
Thu 09:46:58 PM 38.4350 -5.3280 14° North 484 557 32,000  Level FlightAware ADS-B
Thu 09:47:38 PM 38.5240 -5.3000 14° North 481 554 32,000  Level FlightAware ADS-B
Thu 09:48:23 PM 38.6200 -5.2700 14° North 481 554 32,000  Level FlightAware ADS-B
Thu 09:49:03 PM 38.7070 -5.2430 14° North 480 552 32,000  Level FlightAware ADS-B
Thu 09:49:43 PM 38.7920 -5.2160 14° North 480 552 32,000 -71 Level FlightAware ADS-B
Thu 09:50:28 PM 38.8900 -5.1740 18° North 495 570 31,900 -424 Descending FlightAware ADS-B
Thu 09:51:08 PM 38.9710 -5.1160 29° Northeast 498 573 31,400 -825 Descending FlightAware ADS-B
Thu 09:51:48 PM 39.0490 -5.0570 30° Northeast 485 558 30,800 -918 Descending FlightAware ADS-B
Thu 09:52:33 PM 39.1310 -4.9930 31° Northeast 477 549 30,100 -918 Descending FlightAware ADS-B
Thu 09:53:13 PM 39.2090 -4.9320 31° Northeast 470 541 29,500 -900 Descending FlightAware ADS-B
Thu 09:53:53 PM 39.2840 -4.8750 30° Northeast 474 545 28,900 -918 Descending FlightAware ADS-B
Thu 09:54:38 PM 39.3690 -4.8090 31° Northeast 476 548 28,200 -918 Descending FlightAware ADS-B
Thu 09:55:18 PM 39.4420 -4.7560 29° Northeast 470 541 27,600 -988 Descending FlightAware ADS-B
Thu 09:56:03 PM 39.5380 -4.7150 18° North 466 536 26,800 -988 Descending FlightAware ADS-B
Thu 09:56:43 PM 39.6190 -4.6800 18° North 468 539 26,200 -975 Descending FlightAware ADS-B
Thu 09:57:23 PM 39.7030 -4.6430 19° North 469 540 25,500 -1,059 Descending FlightAware ADS-B
Thu 09:58:08 PM 39.7950 -4.6030 18° North 466 536 24,700 -1,059 Descending FlightAware ADS-B
Thu 09:58:48 PM 39.8760 -4.5680 18° North 468 539 24,000 -988 Descending FlightAware ADS-B
Thu 09:59:33 PM 39.9690 -4.5280 18° North 469 540 23,300 -988 Descending FlightAware ADS-B
Thu 10:00:13 PM 40.0500 -4.4920 19° North 464 534 22,600 -975 Descending FlightAware ADS-B
Thu 10:00:53 PM 40.1310 -4.4560 19° North 458 527 22,000 -918 Descending FlightAware ADS-B
Thu 10:01:38 PM 40.2180 -4.4180 18° North 453 521 21,300 -988 Descending FlightAware ADS-B
Thu 10:02:18 PM 40.2990 -4.3820 19° North 445 512 20,600 -1,050 Descending FlightAware ADS-B
Thu 10:02:58 PM 40.3770 -4.3480 18° North 441 507 19,900 -1,200 Descending FlightAware ADS-B
Thu 10:03:43 PM 40.4640 -4.3100 18° North 436 502 18,900 -1,906 Descending FlightAware ADS-B
Thu 10:04:23 PM 40.5360 -4.2640 26° Northeast 448 516 17,200 -2,541 Descending FlightAware ADS-B
Thu 10:05:08 PM 40.6010 -4.1790 45° Northeast 443 510 15,300 -2,471 Descending FlightAware ADS-B
Thu 10:05:48 PM 40.6590 -4.1020 45° Northeast 430 495 13,700 -1,482 Descending FlightAware ADS-B
Thu 10:06:33 PM 40.7190 -4.0220 45° Northeast 392 451 13,200 -635 Descending FlightAware ADS-B
Thu 10:07:13 PM 40.7680 -3.9580 45° Northeast 360 414 12,800 -750 Descending FlightAware ADS-B
Thu 10:07:53 PM 40.8130 -3.8990 45° Northeast 330 380 12,200 -635 Descending FlightAware ADS-B
Thu 10:08:38 PM 40.8570 -3.8390 46° Northeast 301 346 11,900 -565 Descending FlightAware ADS-B
Thu 10:09:18 PM 40.8970 -3.7870 44° Northeast 283 326 11,400 -675 Descending FlightAware ADS-B
Thu 10:09:58 PM 40.9330 -3.7380 46° Northeast 292 336 11,000 -545 Descending FlightAware ADS-B
Thu 10:10:13 PM 40.9390 -3.7190 67° East 303 349 10,900  Descending FlightAware ADS-B
Thu 10:10:43 PM 40.9280 -3.6590 104° East 297 342 11,000 -600 Climbing FlightAware ADS-B
Thu 10:11:23 PM 40.9010 -3.5990 121° Southeast 290 334 10,200 -1,114 Descending FlightAware ADS-B
Thu 10:11:53 PM 40.8730 -3.5660 138° Southeast 254 292 9,700 -1,091 Descending FlightAware ADS-B
Thu 10:12:18 PM 40.8460 -3.5610 172° South 235 270 9,200 -1,600 Descending FlightAware ADS-B
Thu 10:12:38 PM 40.8220 -3.5610 180° South 236 272 8,500 -1,629 Descending FlightAware ADS-B
Thu 10:13:28 PM 40.7690 -3.5610 180° South 213 245 7,300 -1,600 Descending FlightAware ADS-B
Thu 10:13:53 PM 40.7460 -3.5610 180° South 207 238 6,500 -1,754 Descending FlightAware ADS-B
Thu 10:14:33 PM 40.7080 -3.5600 179° South 203 234 5,400 -1,341 Descending FlightAware ADS-B
Thu 10:15:18 PM 40.6680 -3.5600 180° South 189 217 4,600 -1,015 Descending FlightAware ADS-B
Thu 10:15:38 PM 40.6490 -3.5600 180° South 192 221 4,300 -933 Descending FlightAware ADS-B
Thu 10:16:03 PM 40.6270 -3.5600 180° South 191 220 3,900 -1,050 Descending FlightAware ADS-B
Thu 10:16:18 PM 40.6140 -3.5600 180° South 184 212 3,600 -982 Descending FlightAware ADS-B
Thu 10:16:58 PM 40.5820 -3.5600 180° South 160 184 3,000 -943 Descending FlightAware ADS-B
Thu 10:17:28 PM 40.5600 -3.5600 180° South 154 177 2,500 -825 Descending FlightAware ADS-B
Thu 10:18:18 PM 40.5270 -3.5590 179° South 153 176 1,900 -720 Descending FlightAware ADS-B

Login

Don't have an account? Register now (free) for customized features, flight alerts, and more!